ROMMA est une association bénévole à but non lucratif. Votre soutien est indispensable : ADHERER à ROMMA ou FAIRE un DON

Grimentz - (CH, Suisse)

Alpes Valaisannes (1710 m)   Longitude: 07° 34' E   Latitude: 46° 11' N Station partenaire n°125
 

Détail journalier du     <<     >>

Température Precipitation Humidité Vent Dir Rafale Dir. rafale Ensol.
Heure (°C) (mm) (%) (km/h) (km/h) (min)
01:00 2.50894ONO6NO0
02:00 2.80864ONO10ONO0
03:00 2.70854NO10O0
04:00 3.00834NO8NO0
05:00 2.30854NO6NO0
06:00 2.30854ONO10ONO0
07:00 2.40844ONO6ONO0
08:00 2.20854NO6NO0
09:00 3.80812NO5ONO25
10:00 7.40671---6E60
11:00 8.30653SSE10SSO60
12:00 8.90.2684E11ENE45
13:00 10.30604E13E60
14:00 10.70554SE11E60
15:00 10.40554E15ENE60
16:00 10.20553E13E55
17:00 8.00621S10ESE10
18:00 6.507103S0
19:00 5.307400---0
20:00 4.60741---8NO0
21:00 4.80744NO6ONO0
22:00 4.10774NO6NO0
23:00 4.20754ONO8ONO0
minuit 3.80762NO6NO0

Graphique du 10-10-2019

 

Serveur OMMA